sensor_id;sensor_type;location;lat;lon;timestamp;temperature;humidity
14577;DHT22;7375;46.072;14.470;2023-05-29T00:01:33;23.60;66.10
14577;DHT22;7375;46.072;14.470;2023-05-29T00:04:01;23.60;66.20
14577;DHT22;7375;46.072;14.470;2023-05-29T00:06:28;23.60;66.20
14577;DHT22;7375;46.072;14.470;2023-05-29T00:08:54;23.60;66.30
14577;DHT22;7375;46.072;14.470;2023-05-29T00:11:21;23.60;66.30
14577;DHT22;7375;46.072;14.470;2023-05-29T00:13:49;23.60;66.40
14577;DHT22;7375;46.072;14.470;2023-05-29T00:16:16;23.60;66.40
14577;DHT22;7375;46.072;14.470;2023-05-29T00:18:44;23.60;66.40
14577;DHT22;7375;46.072;14.470;2023-05-29T00:21:11;23.60;66.40
14577;DHT22;7375;46.072;14.470;2023-05-29T00:23:38;23.60;66.50
14577;DHT22;7375;46.072;14.470;2023-05-29T00:26:06;23.50;66.50
14577;DHT22;7375;46.072;14.470;2023-05-29T00:28:33;23.60;66.50
14577;DHT22;7375;46.072;14.470;2023-05-29T00:31:02;23.50;66.40
14577;DHT22;7375;46.072;14.470;2023-05-29T00:33:29;23.60;66.60
14577;DHT22;7375;46.072;14.470;2023-05-29T00:35:56;23.50;66.60
14577;DHT22;7375;46.072;14.470;2023-05-29T00:38:23;23.50;66.70
14577;DHT22;7375;46.072;14.470;2023-05-29T00:40:50;23.50;66.70
14577;DHT22;7375;46.072;14.470;2023-05-29T00:43:17;23.50;66.80
14577;DHT22;7375;46.072;14.470;2023-05-29T00:45:43;23.50;66.90
14577;DHT22;7375;46.072;14.470;2023-05-29T00:48:11;23.50;66.90
14577;DHT22;7375;46.072;14.470;2023-05-29T00:50:38;23.50;67.00
14577;DHT22;7375;46.072;14.470;2023-05-29T00:53:06;23.50;67.00
14577;DHT22;7375;46.072;14.470;2023-05-29T00:55:33;23.50;67.00
14577;DHT22;7375;46.072;14.470;2023-05-29T00:58:00;23.50;67.00
14577;DHT22;7375;46.072;14.470;2023-05-29T01:00:26;23.50;67.00
14577;DHT22;7375;46.072;14.470;2023-05-29T01:02:55;23.50;67.10
14577;DHT22;7375;46.072;14.470;2023-05-29T01:05:24;23.50;67.20
14577;DHT22;7375;46.072;14.470;2023-05-29T01:07:51;23.50;67.30
14577;DHT22;7375;46.072;14.470;2023-05-29T01:10:18;23.50;67.40
14577;DHT22;7375;46.072;14.470;2023-05-29T01:12:47;23.50;67.40
14577;DHT22;7375;46.072;14.470;2023-05-29T01:15:21;23.50;67.40
14577;DHT22;7375;46.072;14.470;2023-05-29T01:18:08;23.50;67.30
14577;DHT22;7375;46.072;14.470;2023-05-29T01:20:40;23.40;67.30
14577;DHT22;7375;46.072;14.470;2023-05-29T01:23:14;23.40;67.30
14577;DHT22;7375;46.072;14.470;2023-05-29T01:25:50;23.50;67.30
14577;DHT22;7375;46.072;14.470;2023-05-29T01:28:21;23.40;67.30
14577;DHT22;7375;46.072;14.470;2023-05-29T01:30:49;23.40;67.30
14577;DHT22;7375;46.072;14.470;2023-05-29T01:33:17;23.40;67.30
14577;DHT22;7375;46.072;14.470;2023-05-29T01:35:45;23.40;67.30
14577;DHT22;7375;46.072;14.470;2023-05-29T01:38:12;23.40;67.40
14577;DHT22;7375;46.072;14.470;2023-05-29T01:40:38;23.40;67.50
14577;DHT22;7375;46.072;14.470;2023-05-29T01:43:24;23.40;67.50
14577;DHT22;7375;46.072;14.470;2023-05-29T01:45:50;23.40;67.40
14577;DHT22;7375;46.072;14.470;2023-05-29T01:48:17;23.40;67.60
14577;DHT22;7375;46.072;14.470;2023-05-29T01:50:44;23.40;67.60
14577;DHT22;7375;46.072;14.470;2023-05-29T01:53:13;23.40;67.70
14577;DHT22;7375;46.072;14.470;2023-05-29T01:55:39;23.40;67.80
14577;DHT22;7375;46.072;14.470;2023-05-29T01:58:06;23.40;67.90
14577;DHT22;7375;46.072;14.470;2023-05-29T02:00:35;23.30;67.70
14577;DHT22;7375;46.072;14.470;2023-05-29T02:03:01;23.30;67.80
14577;DHT22;7375;46.072;14.470;2023-05-29T02:05:28;23.40;67.80
14577;DHT22;7375;46.072;14.470;2023-05-29T02:07:55;23.30;67.70
14577;DHT22;7375;46.072;14.470;2023-05-29T02:10:22;23.30;67.70
14577;DHT22;7375;46.072;14.470;2023-05-29T02:12:48;23.30;67.80
14577;DHT22;7375;46.072;14.470;2023-05-29T02:15:33;23.30;67.80
14577;DHT22;7375;46.072;14.470;2023-05-29T02:18:15;23.30;67.80
14577;DHT22;7375;46.072;14.470;2023-05-29T02:20:44;23.30;67.80
14577;DHT22;7375;46.072;14.470;2023-05-29T02:23:11;23.30;67.90
14577;DHT22;7375;46.072;14.470;2023-05-29T02:25:38;23.30;67.90
14577;DHT22;7375;46.072;14.470;2023-05-29T02:28:05;23.30;68.00
14577;DHT22;7375;46.072;14.470;2023-05-29T02:30:32;23.30;68.00
14577;DHT22;7375;46.072;14.470;2023-05-29T02:32:59;23.30;68.00
14577;DHT22;7375;46.072;14.470;2023-05-29T02:35:27;23.20;67.80
14577;DHT22;7375;46.072;14.470;2023-05-29T02:37:53;23.30;68.00
14577;DHT22;7375;46.072;14.470;2023-05-29T02:40:20;23.20;67.90
14577;DHT22;7375;46.072;14.470;2023-05-29T02:42:47;23.20;68.00
14577;DHT22;7375;46.072;14.470;2023-05-29T02:45:13;23.20;68.00
14577;DHT22;7375;46.072;14.470;2023-05-29T02:47:40;23.20;68.00
14577;DHT22;7375;46.072;14.470;2023-05-29T02:50:07;23.20;68.00
14577;DHT22;7375;46.072;14.470;2023-05-29T02:52:35;23.20;68.10
14577;DHT22;7375;46.072;14.470;2023-05-29T02:55:03;23.20;68.00
14577;DHT22;7375;46.072;14.470;2023-05-29T02:57:31;23.20;68.10
14577;DHT22;7375;46.072;14.470;2023-05-29T02:59:57;23.20;68.00
14577;DHT22;7375;46.072;14.470;2023-05-29T03:02:24;23.20;68.00
14577;DHT22;7375;46.072;14.470;2023-05-29T03:05:06;23.20;68.00
14577;DHT22;7375;46.072;14.470;2023-05-29T03:07:33;23.20;68.00
14577;DHT22;7375;46.072;14.470;2023-05-29T03:10:00;23.20;68.00
14577;DHT22;7375;46.072;14.470;2023-05-29T03:12:29;23.20;68.10
14577;DHT22;7375;46.072;14.470;2023-05-29T03:15:13;23.10;68.00
14577;DHT22;7375;46.072;14.470;2023-05-29T03:17:40;23.10;67.90
14577;DHT22;7375;46.072;14.470;2023-05-29T03:20:07;23.10;67.90
14577;DHT22;7375;46.072;14.470;2023-05-29T03:22:51;23.10;67.90
14577;DHT22;7375;46.072;14.470;2023-05-29T03:25:20;23.10;67.90
14577;DHT22;7375;46.072;14.470;2023-05-29T03:27:46;23.10;67.90
14577;DHT22;7375;46.072;14.470;2023-05-29T03:30:13;23.10;67.90
14577;DHT22;7375;46.072;14.470;2023-05-29T03:32:40;23.10;67.90
14577;DHT22;7375;46.072;14.470;2023-05-29T03:35:07;23.10;67.90
14577;DHT22;7375;46.072;14.470;2023-05-29T03:37:34;23.10;67.90
14577;DHT22;7375;46.072;14.470;2023-05-29T03:40:00;23.10;67.90
14577;DHT22;7375;46.072;14.470;2023-05-29T03:42:29;23.10;67.90
14577;DHT22;7375;46.072;14.470;2023-05-29T03:44:56;23.10;67.90
14577;DHT22;7375;46.072;14.470;2023-05-29T03:47:23;23.10;68.10
14577;DHT22;7375;46.072;14.470;2023-05-29T03:49:49;23.10;68.10
14577;DHT22;7375;46.072;14.470;2023-05-29T03:52:16;23.10;68.10
14577;DHT22;7375;46.072;14.470;2023-05-29T03:54:43;23.10;68.20
14577;DHT22;7375;46.072;14.470;2023-05-29T03:57:15;23.10;68.30
14577;DHT22;7375;46.072;14.470;2023-05-29T03:59:43;23.10;68.40
14577;DHT22;7375;46.072;14.470;2023-05-29T04:02:09;23.10;68.40
14577;DHT22;7375;46.072;14.470;2023-05-29T04:04:36;23.10;68.40
14577;DHT22;7375;46.072;14.470;2023-05-29T04:07:05;23.10;68.30
14577;DHT22;7375;46.072;14.470;2023-05-29T04:09:32;23.10;68.30
14577;DHT22;7375;46.072;14.470;2023-05-29T04:11:59;23.00;68.30
14577;DHT22;7375;46.072;14.470;2023-05-29T04:14:27;23.00;68.30
14577;DHT22;7375;46.072;14.470;2023-05-29T04:17:13;23.10;68.30
14577;DHT22;7375;46.072;14.470;2023-05-29T04:19:39;23.10;68.30
14577;DHT22;7375;46.072;14.470;2023-05-29T04:22:06;23.10;68.30
14577;DHT22;7375;46.072;14.470;2023-05-29T04:24:33;23.00;68.20
14577;DHT22;7375;46.072;14.470;2023-05-29T04:27:01;23.00;68.20
14577;DHT22;7375;46.072;14.470;2023-05-29T04:29:28;23.10;68.40
14577;DHT22;7375;46.072;14.470;2023-05-29T04:31:55;23.10;68.50
14577;DHT22;7375;46.072;14.470;2023-05-29T04:34:24;23.10;68.50
14577;DHT22;7375;46.072;14.470;2023-05-29T04:36:51;23.10;68.60
14577;DHT22;7375;46.072;14.470;2023-05-29T04:39:17;23.10;68.60
14577;DHT22;7375;46.072;14.470;2023-05-29T04:41:47;23.10;68.60
14577;DHT22;7375;46.072;14.470;2023-05-29T04:44:15;23.10;68.50
14577;DHT22;7375;46.072;14.470;2023-05-29T04:46:42;23.10;68.60
14577;DHT22;7375;46.072;14.470;2023-05-29T04:49:09;23.00;68.50
14577;DHT22;7375;46.072;14.470;2023-05-29T04:51:37;23.10;68.60
14577;DHT22;7375;46.072;14.470;2023-05-29T04:54:05;23.10;68.70
14577;DHT22;7375;46.072;14.470;2023-05-29T04:56:34;23.10;68.80
14577;DHT22;7375;46.072;14.470;2023-05-29T04:59:12;23.10;68.80
14577;DHT22;7375;46.072;14.470;2023-05-29T05:01:38;23.10;68.70
14577;DHT22;7375;46.072;14.470;2023-05-29T05:04:08;23.10;68.70
14577;DHT22;7375;46.072;14.470;2023-05-29T05:06:35;23.10;68.70
14577;DHT22;7375;46.072;14.470;2023-05-29T05:09:06;23.10;68.70
14577;DHT22;7375;46.072;14.470;2023-05-29T05:11:33;23.10;68.80
14577;DHT22;7375;46.072;14.470;2023-05-29T05:14:00;23.10;68.80
14577;DHT22;7375;46.072;14.470;2023-05-29T05:16:27;23.10;68.80
14577;DHT22;7375;46.072;14.470;2023-05-29T05:18:53;23.10;68.80
14577;DHT22;7375;46.072;14.470;2023-05-29T05:21:20;23.10;68.80
14577;DHT22;7375;46.072;14.470;2023-05-29T05:23:47;23.10;68.70
14577;DHT22;7375;46.072;14.470;2023-05-29T05:26:15;23.20;68.80
14577;DHT22;7375;46.072;14.470;2023-05-29T05:28:41;23.10;68.60
14577;DHT22;7375;46.072;14.470;2023-05-29T05:31:08;23.20;68.60
14577;DHT22;7375;46.072;14.470;2023-05-29T05:33:35;23.20;68.50
14577;DHT22;7375;46.072;14.470;2023-05-29T05:36:01;23.20;68.50
14577;DHT22;7375;46.072;14.470;2023-05-29T05:38:28;23.30;68.50
14577;DHT22;7375;46.072;14.470;2023-05-29T05:40:55;23.30;68.50
14577;DHT22;7375;46.072;14.470;2023-05-29T05:43:23;23.30;68.10
14577;DHT22;7375;46.072;14.470;2023-05-29T05:45:51;23.40;67.50
14577;DHT22;7375;46.072;14.470;2023-05-29T05:48:18;23.40;61.30
14577;DHT22;7375;46.072;14.470;2023-05-29T05:50:45;23.40;61.60
14577;DHT22;7375;46.072;14.470;2023-05-29T05:53:11;23.40;59.20
14577;DHT22;7375;46.072;14.470;2023-05-29T05:55:42;23.40;59.60
14577;DHT22;7375;46.072;14.470;2023-05-29T05:58:08;23.50;59.90
14577;DHT22;7375;46.072;14.470;2023-05-29T06:00:37;23.50;60.40
14577;DHT22;7375;46.072;14.470;2023-05-29T06:03:03;23.50;60.90
14577;DHT22;7375;46.072;14.470;2023-05-29T06:05:30;23.60;61.30
14577;DHT22;7375;46.072;14.470;2023-05-29T06:07:59;23.60;60.40
14577;DHT22;7375;46.072;14.470;2023-05-29T06:10:26;23.70;59.70
14577;DHT22;7375;46.072;14.470;2023-05-29T06:12:52;23.70;59.00
14577;DHT22;7375;46.072;14.470;2023-05-29T06:15:19;23.70;58.20
14577;DHT22;7375;46.072;14.470;2023-05-29T06:17:47;23.70;58.80
14577;DHT22;7375;46.072;14.470;2023-05-29T06:20:19;23.80;59.50
14577;DHT22;7375;46.072;14.470;2023-05-29T06:22:46;23.80;58.50
14577;DHT22;7375;46.072;14.470;2023-05-29T06:25:15;23.90;58.00
14577;DHT22;7375;46.072;14.470;2023-05-29T06:27:42;23.90;57.50
14577;DHT22;7375;46.072;14.470;2023-05-29T06:30:09;23.90;58.50
14577;DHT22;7375;46.072;14.470;2023-05-29T06:32:36;23.90;58.10
14577;DHT22;7375;46.072;14.470;2023-05-29T06:35:05;23.90;57.90
14577;DHT22;7375;46.072;14.470;2023-05-29T06:37:32;24.00;58.60
14577;DHT22;7375;46.072;14.470;2023-05-29T06:39:58;24.00;59.00
14577;DHT22;7375;46.072;14.470;2023-05-29T06:42:25;24.10;59.30
14577;DHT22;7375;46.072;14.470;2023-05-29T06:44:52;24.10;59.40
14577;DHT22;7375;46.072;14.470;2023-05-29T06:47:19;24.10;59.60
14577;DHT22;7375;46.072;14.470;2023-05-29T06:50:07;24.20;59.90
14577;DHT22;7375;46.072;14.470;2023-05-29T06:52:34;24.20;60.00
14577;DHT22;7375;46.072;14.470;2023-05-29T06:55:01;24.30;60.10
14577;DHT22;7375;46.072;14.470;2023-05-29T06:57:27;24.30;60.30
14577;DHT22;7375;46.072;14.470;2023-05-29T06:59:54;24.30;60.30
14577;DHT22;7375;46.072;14.470;2023-05-29T07:02:21;24.30;60.20
14577;DHT22;7375;46.072;14.470;2023-05-29T07:04:47;24.40;60.40
14577;DHT22;7375;46.072;14.470;2023-05-29T07:07:16;24.40;60.40
14577;DHT22;7375;46.072;14.470;2023-05-29T07:09:42;24.40;60.40
14577;DHT22;7375;46.072;14.470;2023-05-29T07:12:09;24.50;60.50
14577;DHT22;7375;46.072;14.470;2023-05-29T07:14:35;24.50;60.50
14577;DHT22;7375;46.072;14.470;2023-05-29T07:17:02;24.60;60.60
14577;DHT22;7375;46.072;14.470;2023-05-29T07:19:29;24.60;60.50
14577;DHT22;7375;46.072;14.470;2023-05-29T07:21:57;24.60;60.50
14577;DHT22;7375;46.072;14.470;2023-05-29T07:24:25;24.60;60.50
14577;DHT22;7375;46.072;14.470;2023-05-29T07:26:52;24.60;60.50
14577;DHT22;7375;46.072;14.470;2023-05-29T07:29:20;24.70;60.50
14577;DHT22;7375;46.072;14.470;2023-05-29T07:31:48;24.70;60.60
14577;DHT22;7375;46.072;14.470;2023-05-29T07:34:15;24.70;60.60
14577;DHT22;7375;46.072;14.470;2023-05-29T07:36:55;24.70;60.50
14577;DHT22;7375;46.072;14.470;2023-05-29T07:39:22;24.70;60.50
14577;DHT22;7375;46.072;14.470;2023-05-29T07:41:50;24.70;60.50
14577;DHT22;7375;46.072;14.470;2023-05-29T07:44:23;24.70;60.60
14577;DHT22;7375;46.072;14.470;2023-05-29T07:46:50;24.80;60.70
14577;DHT22;7375;46.072;14.470;2023-05-29T07:49:17;24.80;60.70
14577;DHT22;7375;46.072;14.470;2023-05-29T07:51:43;24.70;60.70
14577;DHT22;7375;46.072;14.470;2023-05-29T07:54:10;24.70;60.70
14577;DHT22;7375;46.072;14.470;2023-05-29T07:56:37;24.70;60.90
14577;DHT22;7375;46.072;14.470;2023-05-29T07:59:05;24.70;60.90
14577;DHT22;7375;46.072;14.470;2023-05-29T08:01:32;24.70;61.00
14577;DHT22;7375;46.072;14.470;2023-05-29T08:03:59;24.70;61.00
14577;DHT22;7375;46.072;14.470;2023-05-29T08:06:26;24.70;61.10
14577;DHT22;7375;46.072;14.470;2023-05-29T08:08:52;24.70;61.10
14577;DHT22;7375;46.072;14.470;2023-05-29T08:11:22;24.60;61.00
14577;DHT22;7375;46.072;14.470;2023-05-29T08:13:49;24.60;61.80
14577;DHT22;7375;46.072;14.470;2023-05-29T08:16:20;24.70;61.40
14577;DHT22;7375;46.072;14.470;2023-05-29T08:18:47;24.60;61.30
14577;DHT22;7375;46.072;14.470;2023-05-29T08:21:14;24.70;61.50
14577;DHT22;7375;46.072;14.470;2023-05-29T08:23:41;24.70;61.50
14577;DHT22;7375;46.072;14.470;2023-05-29T08:26:12;24.60;61.40
14577;DHT22;7375;46.072;14.470;2023-05-29T08:28:39;24.70;61.50
14577;DHT22;7375;46.072;14.470;2023-05-29T08:31:05;24.70;61.70
14577;DHT22;7375;46.072;14.470;2023-05-29T08:33:34;24.70;61.70
14577;DHT22;7375;46.072;14.470;2023-05-29T08:36:02;24.70;61.70
14577;DHT22;7375;46.072;14.470;2023-05-29T08:38:28;24.60;61.60
14577;DHT22;7375;46.072;14.470;2023-05-29T08:40:55;24.70;61.70
14577;DHT22;7375;46.072;14.470;2023-05-29T08:43:22;24.60;61.60
14577;DHT22;7375;46.072;14.470;2023-05-29T08:45:52;24.70;61.70
14577;DHT22;7375;46.072;14.470;2023-05-29T08:48:19;24.60;61.60
14577;DHT22;7375;46.072;14.470;2023-05-29T08:50:50;24.70;61.70
14577;DHT22;7375;46.072;14.470;2023-05-29T08:53:18;24.70;61.70
14577;DHT22;7375;46.072;14.470;2023-05-29T08:55:46;24.60;61.60
14577;DHT22;7375;46.072;14.470;2023-05-29T08:58:13;24.70;61.70
14577;DHT22;7375;46.072;14.470;2023-05-29T09:00:41;24.60;61.60
14577;DHT22;7375;46.072;14.470;2023-05-29T09:03:07;24.60;61.60
14577;DHT22;7375;46.072;14.470;2023-05-29T09:05:34;24.70;61.70
14577;DHT22;7375;46.072;14.470;2023-05-29T09:08:06;24.70;61.70
14577;DHT22;7375;46.072;14.470;2023-05-29T09:10:34;24.70;61.70
14577;DHT22;7375;46.072;14.470;2023-05-29T09:13:00;24.70;61.70
14577;DHT22;7375;46.072;14.470;2023-05-29T09:15:27;24.70;61.70
14577;DHT22;7375;46.072;14.470;2023-05-29T09:17:54;24.70;61.70
14577;DHT22;7375;46.072;14.470;2023-05-29T09:20:22;24.60;61.60
14577;DHT22;7375;46.072;14.470;2023-05-29T09:22:53;24.70;61.70
14577;DHT22;7375;46.072;14.470;2023-05-29T09:25:22;24.70;61.70
14577;DHT22;7375;46.072;14.470;2023-05-29T09:27:51;24.70;61.70
14577;DHT22;7375;46.072;14.470;2023-05-29T09:30:30;24.70;61.80
14577;DHT22;7375;46.072;14.470;2023-05-29T09:32:58;24.70;61.70
14577;DHT22;7375;46.072;14.470;2023-05-29T09:35:25;24.70;61.70
14577;DHT22;7375;46.072;14.470;2023-05-29T09:37:52;24.70;61.70
14577;DHT22;7375;46.072;14.470;2023-05-29T09:40:18;24.70;61.80
14577;DHT22;7375;46.072;14.470;2023-05-29T09:42:46;24.70;61.70
14577;DHT22;7375;46.072;14.470;2023-05-29T09:45:14;24.70;61.70
14577;DHT22;7375;46.072;14.470;2023-05-29T09:47:43;24.70;61.70
14577;DHT22;7375;46.072;14.470;2023-05-29T09:50:14;24.60;61.70
14577;DHT22;7375;46.072;14.470;2023-05-29T09:52:44;24.70;61.70
14577;DHT22;7375;46.072;14.470;2023-05-29T09:55:10;24.70;61.70
14577;DHT22;7375;46.072;14.470;2023-05-29T09:57:38;24.70;61.70
14577;DHT22;7375;46.072;14.470;2023-05-29T10:00:07;24.70;61.50
14577;DHT22;7375;46.072;14.470;2023-05-29T10:02:38;24.60;61.50
14577;DHT22;7375;46.072;14.470;2023-05-29T10:05:05;24.70;61.70
14577;DHT22;7375;46.072;14.470;2023-05-29T10:07:37;24.70;61.70
14577;DHT22;7375;46.072;14.470;2023-05-29T10:10:04;24.70;61.70
14577;DHT22;7375;46.072;14.470;2023-05-29T10:12:35;24.70;61.70
14577;DHT22;7375;46.072;14.470;2023-05-29T10:15:05;24.70;61.70
14577;DHT22;7375;46.072;14.470;2023-05-29T10:17:34;24.70;61.60
14577;DHT22;7375;46.072;14.470;2023-05-29T10:20:02;24.60;61.60
14577;DHT22;7375;46.072;14.470;2023-05-29T10:22:31;24.70;61.70
14577;DHT22;7375;46.072;14.470;2023-05-29T10:24:58;24.70;61.60
14577;DHT22;7375;46.072;14.470;2023-05-29T10:27:26;24.60;61.50
14577;DHT22;7375;46.072;14.470;2023-05-29T10:29:53;24.60;61.50
14577;DHT22;7375;46.072;14.470;2023-05-29T10:32:21;24.70;61.60
14577;DHT22;7375;46.072;14.470;2023-05-29T10:34:54;24.70;61.60
14577;DHT22;7375;46.072;14.470;2023-05-29T10:37:25;24.70;61.60
14577;DHT22;7375;46.072;14.470;2023-05-29T10:40:02;24.70;61.60
14577;DHT22;7375;46.072;14.470;2023-05-29T10:42:46;24.70;61.60
14577;DHT22;7375;46.072;14.470;2023-05-29T10:50:45;24.70;61.60
14577;DHT22;7375;46.072;14.470;2023-05-29T10:53:14;24.70;61.60
14577;DHT22;7375;46.072;14.470;2023-05-29T10:55:42;24.60;61.50
14577;DHT22;7375;46.072;14.470;2023-05-29T10:58:10;24.60;61.40
14577;DHT22;7375;46.072;14.470;2023-05-29T11:00:39;24.70;61.50
14577;DHT22;7375;46.072;14.470;2023-05-29T11:03:06;24.60;61.50
14577;DHT22;7375;46.072;14.470;2023-05-29T11:05:33;24.60;61.40
14577;DHT22;7375;46.072;14.470;2023-05-29T11:08:01;24.60;61.40
14577;DHT22;7375;46.072;14.470;2023-05-29T11:10:55;24.60;61.40
14577;DHT22;7375;46.072;14.470;2023-05-29T11:13:25;24.60;61.40
14577;DHT22;7375;46.072;14.470;2023-05-29T11:16:05;24.70;61.50
14577;DHT22;7375;46.072;14.470;2023-05-29T11:18:35;24.60;61.40
14577;DHT22;7375;46.072;14.470;2023-05-29T11:21:04;24.70;61.50
14577;DHT22;7375;46.072;14.470;2023-05-29T11:23:36;24.60;61.40
14577;DHT22;7375;46.072;14.470;2023-05-29T11:26:06;24.60;61.40
14577;DHT22;7375;46.072;14.470;2023-05-29T11:28:33;24.70;61.50
14577;DHT22;7375;46.072;14.470;2023-05-29T11:31:00;24.60;61.10
14577;DHT22;7375;46.072;14.470;2023-05-29T11:33:29;24.60;61.30
14577;DHT22;7375;46.072;14.470;2023-05-29T11:35:58;24.60;61.40
14577;DHT22;7375;46.072;14.470;2023-05-29T11:38:25;24.60;61.50
14577;DHT22;7375;46.072;14.470;2023-05-29T11:40:54;24.60;61.40
14577;DHT22;7375;46.072;14.470;2023-05-29T11:43:21;24.60;61.40
14577;DHT22;7375;46.072;14.470;2023-05-29T11:45:47;24.70;61.20
14577;DHT22;7375;46.072;14.470;2023-05-29T11:48:17;24.60;58.90
14577;DHT22;7375;46.072;14.470;2023-05-29T11:50:46;24.60;58.20
14577;DHT22;7375;46.072;14.470;2023-05-29T11:53:12;24.60;57.90
14577;DHT22;7375;46.072;14.470;2023-05-29T11:55:39;24.60;56.40
14577;DHT22;7375;46.072;14.470;2023-05-29T11:58:07;24.60;55.80
14577;DHT22;7375;46.072;14.470;2023-05-29T12:00:35;24.60;55.20
14577;DHT22;7375;46.072;14.470;2023-05-29T12:03:02;24.50;55.00
14577;DHT22;7375;46.072;14.470;2023-05-29T12:05:29;24.50;54.50
14577;DHT22;7375;46.072;14.470;2023-05-29T12:07:57;24.50;54.70
14577;DHT22;7375;46.072;14.470;2023-05-29T12:10:26;24.50;54.50
14577;DHT22;7375;46.072;14.470;2023-05-29T12:12:53;24.50;54.10
14577;DHT22;7375;46.072;14.470;2023-05-29T12:15:21;24.50;53.70
14577;DHT22;7375;46.072;14.470;2023-05-29T12:17:48;24.50;53.40
14577;DHT22;7375;46.072;14.470;2023-05-29T12:20:16;24.50;53.50
14577;DHT22;7375;46.072;14.470;2023-05-29T12:22:43;24.50;53.00
14577;DHT22;7375;46.072;14.470;2023-05-29T12:25:11;24.50;53.20
14577;DHT22;7375;46.072;14.470;2023-05-29T12:27:38;24.50;53.30
14577;DHT22;7375;46.072;14.470;2023-05-29T12:30:08;24.50;53.30
14577;DHT22;7375;46.072;14.470;2023-05-29T12:32:37;24.50;52.80
14577;DHT22;7375;46.072;14.470;2023-05-29T12:35:12;24.50;52.40
14577;DHT22;7375;46.072;14.470;2023-05-29T12:37:42;24.50;52.70
14577;DHT22;7375;46.072;14.470;2023-05-29T12:40:09;24.50;52.30
14577;DHT22;7375;46.072;14.470;2023-05-29T12:42:37;24.40;51.70
14577;DHT22;7375;46.072;14.470;2023-05-29T12:45:04;24.40;51.50
14577;DHT22;7375;46.072;14.470;2023-05-29T12:47:32;24.50;51.50
14577;DHT22;7375;46.072;14.470;2023-05-29T12:50:00;24.50;51.30
14577;DHT22;7375;46.072;14.470;2023-05-29T12:52:30;24.40;51.20
14577;DHT22;7375;46.072;14.470;2023-05-29T12:54:57;24.40;51.10
14577;DHT22;7375;46.072;14.470;2023-05-29T12:57:24;24.40;50.30
14577;DHT22;7375;46.072;14.470;2023-05-29T12:59:50;24.40;50.10
14577;DHT22;7375;46.072;14.470;2023-05-29T13:02:17;24.40;49.90
14577;DHT22;7375;46.072;14.470;2023-05-29T13:04:43;24.40;49.80
14577;DHT22;7375;46.072;14.470;2023-05-29T13:07:11;24.40;49.80
14577;DHT22;7375;46.072;14.470;2023-05-29T13:09:38;24.40;50.00
14577;DHT22;7375;46.072;14.470;2023-05-29T13:12:05;24.40;51.10
14577;DHT22;7375;46.072;14.470;2023-05-29T13:14:32;24.40;51.30
14577;DHT22;7375;46.072;14.470;2023-05-29T13:16:59;24.40;50.90
14577;DHT22;7375;46.072;14.470;2023-05-29T13:19:25;24.40;50.80
14577;DHT22;7375;46.072;14.470;2023-05-29T13:21:52;24.40;50.90
14577;DHT22;7375;46.072;14.470;2023-05-29T13:24:20;24.40;51.20
14577;DHT22;7375;46.072;14.470;2023-05-29T13:26:47;24.40;51.30
14577;DHT22;7375;46.072;14.470;2023-05-29T13:29:15;24.40;51.70
14577;DHT22;7375;46.072;14.470;2023-05-29T13:31:42;24.40;52.20
14577;DHT22;7375;46.072;14.470;2023-05-29T13:34:09;24.50;52.70
14577;DHT22;7375;46.072;14.470;2023-05-29T13:36:36;24.40;53.00
14577;DHT22;7375;46.072;14.470;2023-05-29T13:39:02;24.40;53.90
14577;DHT22;7375;46.072;14.470;2023-05-29T13:41:31;24.40;53.60
14577;DHT22;7375;46.072;14.470;2023-05-29T13:43:57;24.50;53.80
14577;DHT22;7375;46.072;14.470;2023-05-29T13:46:25;24.50;54.00
14577;DHT22;7375;46.072;14.470;2023-05-29T13:48:52;24.50;54.10
14577;DHT22;7375;46.072;14.470;2023-05-29T13:51:19;24.50;54.20
14577;DHT22;7375;46.072;14.470;2023-05-29T13:53:45;24.50;54.40
14577;DHT22;7375;46.072;14.470;2023-05-29T13:56:12;24.50;54.50
14577;DHT22;7375;46.072;14.470;2023-05-29T13:58:40;24.50;54.60
14577;DHT22;7375;46.072;14.470;2023-05-29T14:01:07;24.50;54.70
14577;DHT22;7375;46.072;14.470;2023-05-29T14:03:34;24.50;54.80
14577;DHT22;7375;46.072;14.470;2023-05-29T14:06:01;24.50;54.90
14577;DHT22;7375;46.072;14.470;2023-05-29T14:08:35;24.50;55.10
14577;DHT22;7375;46.072;14.470;2023-05-29T14:11:03;24.50;55.10
14577;DHT22;7375;46.072;14.470;2023-05-29T14:13:35;24.50;54.40
14577;DHT22;7375;46.072;14.470;2023-05-29T14:16:03;24.50;54.90
14577;DHT22;7375;46.072;14.470;2023-05-29T14:18:39;24.50;55.60
14577;DHT22;7375;46.072;14.470;2023-05-29T14:21:14;24.50;55.20
14577;DHT22;7375;46.072;14.470;2023-05-29T14:23:41;24.50;55.30
14577;DHT22;7375;46.072;14.470;2023-05-29T14:26:11;24.50;55.40
14577;DHT22;7375;46.072;14.470;2023-05-29T14:28:39;24.50;55.50
14577;DHT22;7375;46.072;14.470;2023-05-29T14:31:11;24.50;55.50
14577;DHT22;7375;46.072;14.470;2023-05-29T14:33:43;24.50;55.60
14577;DHT22;7375;46.072;14.470;2023-05-29T14:36:15;24.50;55.70
14577;DHT22;7375;46.072;14.470;2023-05-29T14:38:42;24.50;55.70
14577;DHT22;7375;46.072;14.470;2023-05-29T14:41:11;24.50;55.70
14577;DHT22;7375;46.072;14.470;2023-05-29T14:43:38;24.50;55.80
14577;DHT22;7375;46.072;14.470;2023-05-29T14:46:07;24.50;55.90
14577;DHT22;7375;46.072;14.470;2023-05-29T14:48:36;24.50;55.90
14577;DHT22;7375;46.072;14.470;2023-05-29T14:51:03;24.50;56.00
14577;DHT22;7375;46.072;14.470;2023-05-29T14:53:31;24.50;56.00
14577;DHT22;7375;46.072;14.470;2023-05-29T14:56:01;24.50;56.00
14577;DHT22;7375;46.072;14.470;2023-05-29T14:58:30;24.50;56.10
14577;DHT22;7375;46.072;14.470;2023-05-29T15:00:57;24.50;56.10
14577;DHT22;7375;46.072;14.470;2023-05-29T15:03:27;24.50;56.20
14577;DHT22;7375;46.072;14.470;2023-05-29T15:05:58;24.50;56.20
14577;DHT22;7375;46.072;14.470;2023-05-29T15:08:30;24.50;56.20
14577;DHT22;7375;46.072;14.470;2023-05-29T15:11:01;24.50;56.30
14577;DHT22;7375;46.072;14.470;2023-05-29T15:13:30;24.50;56.30
14577;DHT22;7375;46.072;14.470;2023-05-29T15:15:59;24.50;56.40
14577;DHT22;7375;46.072;14.470;2023-05-29T15:18:29;24.50;56.40
14577;DHT22;7375;46.072;14.470;2023-05-29T15:20:58;24.50;56.40
14577;DHT22;7375;46.072;14.470;2023-05-29T15:23:27;24.50;56.40
14577;DHT22;7375;46.072;14.470;2023-05-29T15:25:55;24.50;56.50
14577;DHT22;7375;46.072;14.470;2023-05-29T15:28:25;24.50;56.50
14577;DHT22;7375;46.072;14.470;2023-05-29T15:30:52;24.50;56.50
14577;DHT22;7375;46.072;14.470;2023-05-29T15:33:23;24.50;56.60
14577;DHT22;7375;46.072;14.470;2023-05-29T15:35:50;24.50;56.60
14577;DHT22;7375;46.072;14.470;2023-05-29T15:38:18;24.60;56.70
14577;DHT22;7375;46.072;14.470;2023-05-29T15:40:45;24.50;56.50
14577;DHT22;7375;46.072;14.470;2023-05-29T15:43:12;24.50;56.70